createdAt,value
2023-06-16T00:00:42.449Z,21.30
2023-06-16T00:03:09.487Z,21.30
2023-06-16T00:05:36.736Z,21.30
2023-06-16T00:08:04.635Z,21.30
2023-06-16T00:10:32.334Z,21.30
2023-06-16T00:12:59.235Z,21.30
2023-06-16T00:15:26.408Z,21.10
2023-06-16T00:17:53.714Z,21.20
2023-06-16T00:20:22.347Z,21.20
2023-06-16T00:22:49.587Z,21.00
2023-06-16T00:25:20.742Z,21.10
2023-06-16T00:27:48.030Z,21.00
2023-06-16T00:30:15.291Z,21.00
2023-06-16T00:32:42.161Z,20.90
2023-06-16T00:35:09.475Z,20.90
2023-06-16T00:37:36.283Z,20.80
2023-06-16T00:40:05.361Z,20.80
2023-06-16T00:42:32.845Z,20.80
2023-06-16T00:44:59.713Z,20.80
2023-06-16T00:47:29.197Z,20.80
2023-06-16T00:49:55.999Z,20.70
2023-06-16T00:52:28.440Z,20.70
2023-06-16T00:54:55.875Z,20.70
2023-06-16T00:57:24.476Z,20.60
2023-06-16T00:59:51.298Z,20.60
2023-06-16T01:02:19.840Z,20.50
2023-06-16T01:04:49.446Z,20.60
2023-06-16T01:07:30.555Z,20.60
2023-06-16T01:10:25.950Z,20.50
2023-06-16T01:13:41.012Z,20.50
2023-06-16T01:16:12.677Z,20.50
2023-06-16T01:18:45.401Z,20.50
2023-06-16T01:21:21.057Z,20.40
2023-06-16T01:24:05.333Z,20.40
2023-06-16T01:26:37.103Z,20.30
2023-06-16T01:29:09.341Z,20.30
2023-06-16T01:31:38.922Z,20.30
2023-06-16T01:34:09.581Z,20.30
2023-06-16T01:36:41.547Z,20.20
2023-06-16T01:39:12.104Z,20.10
2023-06-16T01:41:44.243Z,20.10
2023-06-16T01:44:11.705Z,19.90
2023-06-16T01:46:39.872Z,19.90
2023-06-16T01:49:08.960Z,19.80
2023-06-16T01:51:43.839Z,19.80
2023-06-16T01:54:10.752Z,19.70
2023-06-16T01:56:37.716Z,19.70
2023-06-16T01:59:05.282Z,19.70
2023-06-16T02:01:45.224Z,19.60
2023-06-16T02:04:19.700Z,19.60
2023-06-16T02:07:01.038Z,19.60
2023-06-16T02:09:30.922Z,19.70
2023-06-16T02:11:59.546Z,19.60
2023-06-16T02:14:28.355Z,19.70
2023-06-16T02:16:57.547Z,19.60
2023-06-16T02:19:24.895Z,19.60
2023-06-16T02:21:51.721Z,19.70
2023-06-16T02:24:18.603Z,19.60
2023-06-16T02:26:45.513Z,19.60
2023-06-16T02:29:12.385Z,19.50
2023-06-16T02:31:39.204Z,19.50
2023-06-16T02:34:06.179Z,19.40
2023-06-16T02:36:34.293Z,19.40
2023-06-16T02:39:01.176Z,19.40
2023-06-16T02:41:27.957Z,19.30
2023-06-16T02:43:54.719Z,19.40
2023-06-16T02:46:21.554Z,19.30
2023-06-16T02:48:48.381Z,19.30
2023-06-16T02:51:15.230Z,19.30
2023-06-16T02:53:42.563Z,19.20
2023-06-16T02:56:09.417Z,19.00
2023-06-16T02:58:36.571Z,18.90
2023-06-16T03:01:03.594Z,18.90
2023-06-16T03:03:32.287Z,18.90
2023-06-16T03:05:59.971Z,18.90
2023-06-16T03:08:27.228Z,18.90
2023-06-16T03:10:54.343Z,18.90
2023-06-16T03:13:21.236Z,18.90
2023-06-16T03:15:48.167Z,18.80
2023-06-16T03:18:15.044Z,18.50
2023-06-16T03:20:42.912Z,18.60
2023-06-16T03:23:09.730Z,18.50
2023-06-16T03:25:38.084Z,18.50
2023-06-16T03:28:08.071Z,18.50
2023-06-16T03:30:34.812Z,18.50
2023-06-16T03:33:01.819Z,18.50
2023-06-16T03:35:28.632Z,18.60
2023-06-16T03:37:55.492Z,18.50
2023-06-16T03:40:22.305Z,18.50
2023-06-16T03:42:49.127Z,18.40
2023-06-16T03:45:16.059Z,18.50
2023-06-16T03:47:45.526Z,18.50
2023-06-16T03:50:12.431Z,18.40
2023-06-16T03:52:39.615Z,18.40
2023-06-16T03:55:06.787Z,18.40
2023-06-16T03:57:33.584Z,18.40
2023-06-16T04:00:00.418Z,18.40
2023-06-16T04:02:34.087Z,18.40
2023-06-16T04:05:02.633Z,18.30
2023-06-16T04:07:31.787Z,18.30
2023-06-16T04:09:58.713Z,18.30
2023-06-16T04:12:25.767Z,18.30
2023-06-16T04:14:52.649Z,18.30
2023-06-16T04:17:19.459Z,18.40
2023-06-16T04:19:47.793Z,18.40
2023-06-16T04:22:14.781Z,18.30
2023-06-16T04:24:41.622Z,18.40
2023-06-16T04:27:09.599Z,18.40
2023-06-16T04:29:43.505Z,18.50
2023-06-16T04:32:12.376Z,18.50
2023-06-16T04:34:43.363Z,18.50
2023-06-16T04:37:14.803Z,18.40
2023-06-16T04:39:41.911Z,18.30
2023-06-16T04:42:11.031Z,18.40
2023-06-16T04:44:38.058Z,18.40
2023-06-16T04:47:05.408Z,18.40
2023-06-16T04:49:32.577Z,18.20
2023-06-16T04:51:59.534Z,18.20
2023-06-16T04:54:26.880Z,18.30
2023-06-16T04:56:53.986Z,18.30
2023-06-16T04:59:23.785Z,18.20
2023-06-16T05:01:51.211Z,18.20
2023-06-16T05:04:18.704Z,18.20
2023-06-16T05:06:45.519Z,18.20
2023-06-16T05:09:12.310Z,18.30
2023-06-16T05:11:39.170Z,18.20
2023-06-16T05:14:05.949Z,18.30
2023-06-16T05:16:32.754Z,18.30
2023-06-16T05:18:59.689Z,18.20
2023-06-16T05:21:26.849Z,18.10
2023-06-16T05:23:54.557Z,18.20
2023-06-16T05:26:22.445Z,18.20
2023-06-16T05:28:49.597Z,18.30
2023-06-16T05:31:17.844Z,18.30
2023-06-16T05:33:44.713Z,18.30
2023-06-16T05:36:11.710Z,18.30
2023-06-16T05:38:38.462Z,18.40
2023-06-16T05:41:05.382Z,18.40
2023-06-16T05:43:32.165Z,18.30
2023-06-16T05:45:58.991Z,18.50
2023-06-16T05:48:25.927Z,18.40
2023-06-16T05:50:52.758Z,18.40
2023-06-16T05:53:19.772Z,18.50
2023-06-16T05:55:47.706Z,18.60
2023-06-16T05:58:17.628Z,18.60
2023-06-16T06:00:44.498Z,18.70
2023-06-16T06:03:11.517Z,18.70
2023-06-16T06:05:39.947Z,18.60
2023-06-16T06:08:06.833Z,18.60
2023-06-16T06:10:33.638Z,18.60
2023-06-16T06:13:07.281Z,18.60
2023-06-16T06:15:34.094Z,18.70
2023-06-16T06:18:01.021Z,18.80
2023-06-16T06:20:27.900Z,18.90
2023-06-16T06:22:54.712Z,19.00
2023-06-16T06:25:21.532Z,19.00
2023-06-16T06:27:48.283Z,19.00
2023-06-16T06:30:15.341Z,19.10
2023-06-16T06:32:42.432Z,19.10
2023-06-16T06:35:09.793Z,19.20
2023-06-16T06:37:36.636Z,19.20
2023-06-16T06:40:03.934Z,19.30
2023-06-16T06:42:30.787Z,19.30
2023-06-16T06:45:03.386Z,19.40
2023-06-16T06:47:30.300Z,19.40
2023-06-16T06:49:58.364Z,19.50
2023-06-16T06:52:25.130Z,19.60
2023-06-16T06:54:54.003Z,19.60
2023-06-16T06:57:20.768Z,19.70
2023-06-16T06:59:47.574Z,19.80
2023-06-16T07:02:15.114Z,19.80
2023-06-16T07:04:43.780Z,19.70
2023-06-16T07:07:11.072Z,19.90
2023-06-16T07:09:39.321Z,20.10
2023-06-16T07:12:08.301Z,20.10
2023-06-16T07:14:35.413Z,20.10
2023-06-16T07:17:03.980Z,20.20
2023-06-16T07:19:30.874Z,20.30
2023-06-16T07:21:59.121Z,20.20
2023-06-16T07:24:26.173Z,20.30
2023-06-16T07:26:53.110Z,20.40
2023-06-16T07:29:21.594Z,20.40
2023-06-16T07:31:52.045Z,20.50
2023-06-16T07:34:19.277Z,20.60
2023-06-16T07:36:46.168Z,20.80
2023-06-16T07:39:14.028Z,21.20
2023-06-16T07:41:40.898Z,21.50
2023-06-16T07:44:07.713Z,21.60
2023-06-16T07:46:34.736Z,21.90
2023-06-16T07:49:01.992Z,22.20
2023-06-16T07:51:28.791Z,22.40
2023-06-16T07:53:55.624Z,22.60
2023-06-16T07:56:22.662Z,23.00
2023-06-16T07:58:49.522Z,23.10
2023-06-16T08:01:16.383Z,23.20
2023-06-16T08:03:47.628Z,23.60
2023-06-16T08:06:16.583Z,24.10
2023-06-16T08:08:43.609Z,24.20
2023-06-16T08:11:10.599Z,23.90
2023-06-16T08:13:37.453Z,24.30
2023-06-16T08:16:06.161Z,24.10
2023-06-16T08:18:33.167Z,24.40
2023-06-16T08:21:01.184Z,24.50
2023-06-16T08:23:32.175Z,24.50
2023-06-16T08:26:00.917Z,24.30
2023-06-16T08:28:27.877Z,24.30
2023-06-16T08:30:54.796Z,24.40
2023-06-16T08:33:21.574Z,24.80
2023-06-16T08:35:48.561Z,24.40
2023-06-16T08:38:16.323Z,24.10
2023-06-16T08:40:44.506Z,24.20
2023-06-16T08:43:14.073Z,24.60
2023-06-16T08:45:41.594Z,25.00
2023-06-16T08:48:11.863Z,25.30
2023-06-16T08:50:41.831Z,24.80
2023-06-16T08:53:12.489Z,25.00
2023-06-16T08:55:42.043Z,25.20
2023-06-16T08:58:12.688Z,25.90
2023-06-16T09:00:42.390Z,25.80
2023-06-16T09:03:09.648Z,25.90
2023-06-16T09:05:37.546Z,25.70
2023-06-16T09:08:06.822Z,25.70
2023-06-16T09:10:36.655Z,25.60
2023-06-16T09:13:03.842Z,25.50
2023-06-16T09:15:30.669Z,25.20
2023-06-16T09:17:57.653Z,25.40
2023-06-16T09:20:25.304Z,25.60
2023-06-16T09:23:00.968Z,25.50
2023-06-16T09:25:34.026Z,25.60
2023-06-16T09:28:11.427Z,26.10
2023-06-16T09:30:42.683Z,25.50
2023-06-16T09:33:12.768Z,25.60
2023-06-16T09:35:44.041Z,25.90
2023-06-16T09:38:11.977Z,26.10
2023-06-16T09:40:39.853Z,26.70
2023-06-16T09:43:10.544Z,26.40
2023-06-16T09:45:37.686Z,26.00
2023-06-16T09:48:13.014Z,26.10
2023-06-16T09:50:42.086Z,26.10
2023-06-16T09:53:10.620Z,26.10
2023-06-16T09:55:46.970Z,26.20
2023-06-16T09:58:13.801Z,26.30
2023-06-16T10:00:40.649Z,26.40
2023-06-16T10:03:16.690Z,26.60
2023-06-16T10:05:53.591Z,26.60
2023-06-16T10:08:20.996Z,26.50
2023-06-16T10:10:53.708Z,26.30
2023-06-16T10:13:22.618Z,26.40
2023-06-16T10:15:54.021Z,26.40
2023-06-16T10:18:24.338Z,26.00
2023-06-16T10:20:53.605Z,26.30
2023-06-16T10:23:20.513Z,26.70
2023-06-16T10:25:47.895Z,26.90
2023-06-16T10:28:15.845Z,26.60
2023-06-16T10:30:45.003Z,26.50
2023-06-16T10:33:25.419Z,26.60
2023-06-16T10:36:16.111Z,26.50
2023-06-16T10:39:17.457Z,26.50
2023-06-16T10:42:00.338Z,26.50
2023-06-16T10:44:34.233Z,27.10
2023-06-16T10:47:10.496Z,27.00
2023-06-16T10:50:01.111Z,26.60
2023-06-16T10:52:34.020Z,26.70
2023-06-16T10:55:35.448Z,26.80
2023-06-16T10:58:17.530Z,26.90
2023-06-16T11:01:07.000Z,26.90
2023-06-16T11:03:46.358Z,26.70
2023-06-16T11:06:14.048Z,26.90
2023-06-16T11:08:51.321Z,27.10
2023-06-16T11:11:23.349Z,27.00
2023-06-16T11:13:50.683Z,27.20
2023-06-16T11:16:19.684Z,27.30
2023-06-16T11:18:46.734Z,27.40
2023-06-16T11:21:14.713Z,27.50
2023-06-16T11:23:45.798Z,27.50
2023-06-16T11:26:18.732Z,27.60
2023-06-16T11:28:49.554Z,27.40
2023-06-16T11:31:22.270Z,26.90
2023-06-16T11:33:55.821Z,27.00
2023-06-16T11:36:54.829Z,27.10
2023-06-16T11:39:23.524Z,27.10
2023-06-16T11:42:01.700Z,27.00
2023-06-16T11:44:29.225Z,27.30
2023-06-16T11:47:00.212Z,27.60
2023-06-16T11:49:31.106Z,27.70
2023-06-16T11:52:08.146Z,27.60
2023-06-16T11:54:36.853Z,27.40
2023-06-16T11:57:04.004Z,27.70
2023-06-16T11:59:33.643Z,28.10
2023-06-16T12:02:04.396Z,27.70
2023-06-16T12:04:35.522Z,27.60
2023-06-16T12:07:05.622Z,27.70
2023-06-16T12:09:39.844Z,27.70
2023-06-16T12:12:09.774Z,27.90
2023-06-16T12:14:37.757Z,27.50
2023-06-16T12:17:06.541Z,27.60
2023-06-16T12:19:41.393Z,27.60
2023-06-16T12:22:10.509Z,27.50
2023-06-16T12:24:42.353Z,27.50
2023-06-16T12:27:26.622Z,28.10
2023-06-16T12:29:59.307Z,27.90
2023-06-16T12:32:34.916Z,27.60
2023-06-16T12:35:02.985Z,27.70
2023-06-16T12:37:31.054Z,27.80
2023-06-16T12:40:01.150Z,27.80
2023-06-16T12:42:30.816Z,27.90
2023-06-16T12:45:00.929Z,27.80
2023-06-16T12:47:30.378Z,27.70
2023-06-16T12:50:00.920Z,27.80
2023-06-16T12:52:32.213Z,27.60
2023-06-16T12:55:01.015Z,27.80
2023-06-16T12:57:28.807Z,27.80
2023-06-16T12:59:55.908Z,27.60
2023-06-16T13:02:23.404Z,27.50
2023-06-16T13:04:50.559Z,27.70
2023-06-16T13:07:17.541Z,28.10
2023-06-16T13:09:44.498Z,28.00
2023-06-16T13:12:12.197Z,28.20
2023-06-16T13:14:41.764Z,28.50
2023-06-16T13:17:08.618Z,28.20
2023-06-16T13:19:35.974Z,28.30
2023-06-16T13:22:05.008Z,28.40
2023-06-16T13:24:31.985Z,28.30
2023-06-16T13:26:59.922Z,28.30
2023-06-16T13:29:28.089Z,28.50
2023-06-16T13:31:55.533Z,28.50
2023-06-16T13:34:22.544Z,28.60
2023-06-16T13:36:50.482Z,28.50
2023-06-16T13:39:17.358Z,28.70
2023-06-16T13:41:44.222Z,28.60
2023-06-16T13:44:13.290Z,28.60
2023-06-16T13:46:40.952Z,28.70
2023-06-16T13:49:11.216Z,28.60
2023-06-16T13:51:42.231Z,28.50
2023-06-16T13:54:11.807Z,28.60
2023-06-16T13:56:38.755Z,28.60
2023-06-16T13:59:05.556Z,28.60
2023-06-16T14:01:33.131Z,28.50
2023-06-16T14:04:00.108Z,28.80
2023-06-16T14:06:26.979Z,28.90
2023-06-16T14:08:56.997Z,28.60
2023-06-16T14:11:25.217Z,28.60
2023-06-16T14:13:52.806Z,28.50
2023-06-16T14:16:21.876Z,28.10
2023-06-16T14:18:48.727Z,28.30
2023-06-16T14:21:15.508Z,28.50
2023-06-16T14:23:42.279Z,28.50
2023-06-16T14:26:09.065Z,28.10
2023-06-16T14:28:35.853Z,28.10
2023-06-16T14:31:02.770Z,28.10
2023-06-16T14:33:29.574Z,27.90
2023-06-16T14:35:56.315Z,28.00
2023-06-16T14:38:23.064Z,27.90
2023-06-16T14:40:49.955Z,27.90
2023-06-16T14:43:16.786Z,27.90
2023-06-16T14:45:43.594Z,27.90
2023-06-16T14:48:10.955Z,27.90
2023-06-16T14:50:37.822Z,27.90
2023-06-16T14:53:04.708Z,28.20
2023-06-16T14:55:31.452Z,28.00
2023-06-16T14:57:58.306Z,28.00
2023-06-16T15:00:25.189Z,28.30
2023-06-16T15:02:52.108Z,27.90
2023-06-16T15:05:19.763Z,27.80
2023-06-16T15:07:46.539Z,27.70
2023-06-16T15:10:13.522Z,27.80
2023-06-16T15:12:40.338Z,27.80
2023-06-16T15:15:08.189Z,27.60
2023-06-16T15:17:35.973Z,27.70
2023-06-16T15:20:06.480Z,27.80
2023-06-16T15:22:33.302Z,28.10
2023-06-16T15:25:00.287Z,28.10
2023-06-16T15:27:27.199Z,27.90
2023-06-16T15:29:54.040Z,27.90
2023-06-16T15:32:20.847Z,28.20
2023-06-16T15:34:47.690Z,28.50
2023-06-16T15:37:14.554Z,28.40
2023-06-16T15:39:41.334Z,27.90
2023-06-16T15:42:08.339Z,27.80
2023-06-16T15:44:36.950Z,28.00
2023-06-16T15:47:04.165Z,28.30
2023-06-16T15:49:31.298Z,28.50
2023-06-16T15:51:59.388Z,28.20
2023-06-16T15:54:26.610Z,27.90
2023-06-16T15:56:53.504Z,27.90
2023-06-16T15:59:20.361Z,27.90
2023-06-16T16:01:47.511Z,27.90
2023-06-16T16:04:14.870Z,28.10
2023-06-16T16:06:42.123Z,28.30
2023-06-16T16:09:10.784Z,28.30
2023-06-16T16:11:40.748Z,28.30
2023-06-16T16:14:08.947Z,27.90
2023-06-16T16:16:35.941Z,27.90
2023-06-16T16:19:04.125Z,28.10
2023-06-16T16:21:31.931Z,28.10
2023-06-16T16:23:58.960Z,28.00
2023-06-16T16:26:26.033Z,27.80
2023-06-16T16:28:52.888Z,27.50
2023-06-16T16:31:19.936Z,27.40
2023-06-16T16:33:46.836Z,27.60
2023-06-16T16:36:15.554Z,27.80
2023-06-16T16:38:43.027Z,27.70
2023-06-16T16:41:09.886Z,27.80
2023-06-16T16:43:36.915Z,27.50
2023-06-16T16:46:03.717Z,27.50
2023-06-16T16:48:30.532Z,27.40
2023-06-16T16:50:57.427Z,27.40
2023-06-16T16:53:24.220Z,27.50
2023-06-16T16:55:51.113Z,27.60
2023-06-16T16:58:17.976Z,27.80
2023-06-16T17:00:44.727Z,27.70
2023-06-16T17:03:18.889Z,27.60
2023-06-16T17:05:45.735Z,27.40
2023-06-16T17:08:12.490Z,27.50
2023-06-16T17:10:39.224Z,27.50
2023-06-16T17:13:09.833Z,27.60
2023-06-16T17:15:37.263Z,27.50
2023-06-16T17:18:05.187Z,27.50
2023-06-16T17:20:32.150Z,27.20
2023-06-16T17:22:59.234Z,27.20
2023-06-16T17:25:27.302Z,27.00
2023-06-16T17:27:59.572Z,27.30
2023-06-16T17:30:28.217Z,27.00
2023-06-16T17:32:59.336Z,26.90
2023-06-16T17:35:31.526Z,27.20
2023-06-16T17:37:59.559Z,26.90
2023-06-16T17:40:31.962Z,27.00
2023-06-16T17:42:58.981Z,27.40
2023-06-16T17:45:25.892Z,27.40
2023-06-16T17:47:56.124Z,27.50
2023-06-16T17:50:25.732Z,27.40
2023-06-16T17:52:54.723Z,26.90
2023-06-16T17:55:23.065Z,27.00
2023-06-16T17:57:49.980Z,26.80
2023-06-16T18:00:17.509Z,26.50
2023-06-16T18:02:44.520Z,26.40
2023-06-16T18:05:12.182Z,26.50
2023-06-16T18:07:39.283Z,26.40
2023-06-16T18:10:07.398Z,26.50
2023-06-16T18:12:34.134Z,26.60
2023-06-16T18:15:01.092Z,26.60
2023-06-16T18:17:27.909Z,26.60
2023-06-16T18:19:54.973Z,26.40
2023-06-16T18:22:21.855Z,26.20
2023-06-16T18:24:48.613Z,26.10
2023-06-16T18:27:15.550Z,25.90
2023-06-16T18:29:44.826Z,25.80
2023-06-16T18:32:14.816Z,25.80
2023-06-16T18:34:42.970Z,25.80
2023-06-16T18:37:10.891Z,25.70
2023-06-16T18:39:37.693Z,25.80
2023-06-16T18:42:04.916Z,25.70
2023-06-16T18:44:31.944Z,25.50
2023-06-16T18:47:00.245Z,25.80
2023-06-16T18:49:27.122Z,25.90
2023-06-16T18:51:55.763Z,25.60
2023-06-16T18:54:25.743Z,25.60
2023-06-16T18:56:52.577Z,25.70
2023-06-16T18:59:19.448Z,25.60
2023-06-16T19:01:46.744Z,25.60
2023-06-16T19:04:13.724Z,25.60
2023-06-16T19:06:40.648Z,25.30
2023-06-16T19:09:07.505Z,25.20
2023-06-16T19:11:34.282Z,25.20
2023-06-16T19:14:01.320Z,25.30
2023-06-16T19:16:28.142Z,25.30
2023-06-16T19:18:54.943Z,25.20
2023-06-16T19:21:21.767Z,25.30
2023-06-16T19:23:48.566Z,25.30
2023-06-16T19:26:15.372Z,25.20
2023-06-16T19:28:51.347Z,25.10
2023-06-16T19:31:23.698Z,25.00
2023-06-16T19:33:50.934Z,25.10
2023-06-16T19:36:18.318Z,25.20
2023-06-16T19:38:45.299Z,25.00
2023-06-16T19:41:12.624Z,25.10
2023-06-16T19:43:39.691Z,25.20
2023-06-16T19:46:20.911Z,25.00
2023-06-16T19:48:47.738Z,24.90
2023-06-16T19:51:14.639Z,24.90
2023-06-16T19:53:41.371Z,24.90
2023-06-16T19:56:15.672Z,24.70
2023-06-16T19:58:55.729Z,24.80
2023-06-16T20:01:22.659Z,24.60
2023-06-16T20:03:51.952Z,24.60
2023-06-16T20:06:18.913Z,24.50
2023-06-16T20:08:45.797Z,24.60
2023-06-16T20:11:12.513Z,24.50
2023-06-16T20:13:39.297Z,24.40
2023-06-16T20:16:07.470Z,24.30
2023-06-16T20:18:34.284Z,24.30
2023-06-16T20:21:02.154Z,24.20
2023-06-16T20:23:29.040Z,24.20
2023-06-16T20:25:55.962Z,24.20
2023-06-16T20:28:22.934Z,24.10
2023-06-16T20:30:49.907Z,24.00
2023-06-16T20:33:17.570Z,24.00
2023-06-16T20:35:46.544Z,24.00
2023-06-16T20:38:13.393Z,23.90
2023-06-16T20:40:42.525Z,23.80
2023-06-16T20:43:11.874Z,23.80
2023-06-16T20:45:38.876Z,23.70
2023-06-16T20:48:07.072Z,23.70
2023-06-16T20:50:35.302Z,23.70
2023-06-16T20:53:02.452Z,23.70
2023-06-16T20:55:29.229Z,23.60
2023-06-16T20:57:57.623Z,23.70
2023-06-16T21:00:28.629Z,23.50
2023-06-16T21:02:56.405Z,23.50
2023-06-16T21:05:23.565Z,23.50
2023-06-16T21:07:50.603Z,23.50
2023-06-16T21:10:20.371Z,23.40
2023-06-16T21:12:47.842Z,23.20
2023-06-16T21:15:22.072Z,23.20
2023-06-16T21:17:49.741Z,23.20
2023-06-16T21:20:18.729Z,23.10
2023-06-16T21:22:51.528Z,23.00
2023-06-16T21:25:18.514Z,22.90
2023-06-16T21:27:45.491Z,22.90
2023-06-16T21:30:13.092Z,22.90
2023-06-16T21:32:39.984Z,22.90
2023-06-16T21:35:07.495Z,22.90
2023-06-16T21:37:36.650Z,22.90
2023-06-16T21:40:10.836Z,22.90
2023-06-16T21:42:41.276Z,22.90
2023-06-16T21:45:11.901Z,22.90
2023-06-16T21:47:39.630Z,23.00
2023-06-16T21:50:08.599Z,23.00
2023-06-16T21:52:36.317Z,23.00
2023-06-16T21:55:04.429Z,22.90
2023-06-16T21:57:31.457Z,22.90
2023-06-16T21:59:59.530Z,22.90
2023-06-16T22:02:29.451Z,22.80
2023-06-16T22:04:56.295Z,22.80
2023-06-16T22:07:24.111Z,22.80
2023-06-16T22:09:52.797Z,22.70
2023-06-16T22:12:20.060Z,22.70
2023-06-16T22:14:47.921Z,22.70
2023-06-16T22:17:15.934Z,22.60
2023-06-16T22:19:45.571Z,22.60
2023-06-16T22:22:12.912Z,22.60
2023-06-16T22:24:42.529Z,22.50
2023-06-16T22:29:40.909Z,22.30
2023-06-16T22:32:08.510Z,22.30
2023-06-16T22:34:36.183Z,22.20
2023-06-16T22:37:03.193Z,22.20
2023-06-16T22:39:30.233Z,22.20
2023-06-16T22:41:57.347Z,22.20
2023-06-16T22:44:24.839Z,22.20
2023-06-16T22:46:57.279Z,22.10
2023-06-16T22:49:25.392Z,22.00
2023-06-16T22:51:59.274Z,22.00
2023-06-16T22:54:28.233Z,21.90
2023-06-16T22:56:56.060Z,21.90
2023-06-16T22:59:24.280Z,21.90
2023-06-16T23:01:51.592Z,21.90
2023-06-16T23:04:19.374Z,21.80
2023-06-16T23:06:46.600Z,21.70
2023-06-16T23:09:13.492Z,21.60
2023-06-16T23:11:40.784Z,21.50
2023-06-16T23:14:07.796Z,21.50
2023-06-16T23:16:34.815Z,21.50
2023-06-16T23:19:02.062Z,21.50
2023-06-16T23:21:29.121Z,21.40
2023-06-16T23:23:56.318Z,21.40
2023-06-16T23:26:23.778Z,21.30
2023-06-16T23:28:50.964Z,21.30
2023-06-16T23:31:20.242Z,21.30
2023-06-16T23:33:50.716Z,21.20
2023-06-16T23:36:18.002Z,21.20
2023-06-16T23:38:46.058Z,21.10
2023-06-16T23:41:14.152Z,21.10
2023-06-16T23:43:41.102Z,21.00
2023-06-16T23:46:08.524Z,20.80
2023-06-16T23:48:36.723Z,20.80
2023-06-16T23:51:03.542Z,20.70
2023-06-16T23:53:33.199Z,20.70
2023-06-16T23:56:00.153Z,20.70
2023-06-16T23:58:29.214Z,20.70
